Marble Falls, TX

5:52 PM CDT on August 31, 2016 (GMT -0500)
Highland Hills Marble Falls | | Change Station

Elev 912 ft 30.62 °N, 98.28 °W | Updated 30 seconds ago

Clear
Clear
90.1 °F
Feels Like 99 °F
N
4.0
Wind Variable Wind from East
Gusts 8.0 mph

Today
High -- | Low -- °F
--% Chance of Precip.
Yesterday
High -- | Low -- °F
Precip. -- in
Pressure 29.93 in
Visibility 10.0 miles
Clouds Clear
Heat Index 99 °F
Dew Point 74 °F
Humidity 59%
Rainfall 0.00 in
Snow Depth Not available.
7:09 AM 7:56 PM
Waning Crescent, 0% visible
METAR KDZB 312235Z AUTO 06003KT 10SM CLR 33/20 A2993 RMK AO2 T03300195
Pressure 29.93 in
Visibility 10.0 miles
Clouds Clear
Heat Index 99 °F
Dew Point 74 °F
Humidity 59%
Rainfall 0.00 in
Snow Depth Not available.
7:09 AM 7:56 PM
Waning Crescent, 0% visible
METAR KDZB 312235Z AUTO 06003KT 10SM CLR 33/20 A2993 RMK AO2 T03300195

10-Day Weather Forecast

Almanac

Astronomy

Aug. 31, 2016 Rise Set
Actual Time
Civil Twilight
Nautical Twilight
Astronomical Twilight
Moon
Length of Visible Light
Length of Day
Tomorrow will be .
, % of the Moon is Illuminated

Today's Extremes

State Highs State Lows

Community

WunderPhotos

Upload Photos

1,936,204 photos uploaded!

WunderBlog® & News

Nearby

Air Quality

  Air Quality AQ Index Pollutant
Not available.

Snow Depth

Station Depth Elevation

Earthquake Activity

City Distance Mag. Time & Date
Minimum magnitude displayed is 2.5.

Coastal Water Temperatures

Place Temperature

Stations

Nearby Weather Stations

Station Location Temp. Windchill Dew Point Humidity Wind Precip. Elev Updated Type
                   

Watches & Warnings

There are currently no watches in effect.